SLLPSPZO

Guest
Details From SLLP - La Paz
To SPZO - TENIENTE ALEJANDRO VELASCO ASTETE INTL
Flight Number -
Tags generated
Created
Modified
Stats Distance 288 nm / 534 km
Max Altitude 34,000 ft / 10,363 m
Waypoints 5
Social Downloads 0
Likes 0
Share VATSIM

Download

Looking for another format? Having issues loading an existing format? Contact us
Advertisement - Login to hide

Notes

Basic altitude profile: - Ascent Rate: 2500ft/min - Ascent Speed: 250kts - Cruise Altitude: 35000ft - Cruise Speed: 420kts - Descent Rate: 1500ft/min - Descent Speed: 250kts Options: - Use NATs: yes - Use PACOTS: yes - Use low airways: no - Use high airways: yes

Route

SLLP ELAKO UA304 JUL UV11 URC SPZO

ID Type Via Altitude Latitude Longitude Leg Dist Tot Dist Heading (true) Name
O SLLP APT - 0 ft / 0 m -16.50936˚ -68.19055˚ - 0 nm - La Paz
ELAKO FIX - 26,100 ft / 7,955 m -15.92667˚ -69.30500˚ 73 nm 73 nm 298° / 299° -
JUL VOR UA304 (AWY-HI) 34,000 ft / 10,363 m -15.46806˚ -70.15111˚ 56 nm 129 nm 299° / 299° JULIACA VOR-DME
URC VOR UV11 (AWY-HI) 24,500 ft / 7,468 m -13.64944˚ -71.58639˚ 137 nm 266 nm 322° / 323° URCOS VOR-DME
O SPZO APT - 0 ft / 0 m -13.53572˚ -71.93878˚ 21 nm 288 nm 288° / 288° TENIENTE ALEJANDRO VELASCO ASTETE INTL

Altitude Profile

Advertisement - Login to hide

Weather


0- 5 10 15 20 25 30 35+ Temperature / ° C

Clouds and Precipitation
Forecast for 2018-05-28 00:00 UTC. Updated 41 minutes ago

Ground ~20,000 ft ~40,000 ft Winds

SLLP

Details ICAO SLLP (LPB)
Name La Paz
Region Bolivia
Timezone America/La_Paz (UTC-4.0)
Stats Elevation 13,313 ft / 4,058 m (AMSL)
Location -16.509356° -68.190551°
Runways 2
Magnetic Variation 8.003° W

METAR

SLLP 280000Z 08008KT 9999 NSC 04/M02 Q1037

Decode

TAF

Not found

Departure Runways

ID Width Length Bearing (true) Bearing (mag) Surface Threshold Offset Overrun Length
10 151 ft / 46 m 13,106 ft / 3,995 m 91.90° 99.90° Concrete 0 ft / 0 m 200 ft / 61 m
10L 300 ft / 91 m 6,718 ft / 2,048 m 97.72° 105.72° Dirt 0 ft / 0 m 0 ft / 0 m
28 151 ft / 46 m 13,106 ft / 3,995 m 271.89° 279.89° Concrete 0 ft / 0 m 0 ft / 0 m
28R 300 ft / 91 m 6,718 ft / 2,048 m 277.71° 285.71° Dirt 0 ft / 0 m 0 ft / 0 m

SPZO

Details ICAO SPZO (CUZ)
Name TENIENTE ALEJANDRO VELASCO ASTETE INTL
Region Peru
Timezone America/Lima (UTC-5.0)
Stats Elevation 10,860 ft / 3,310 m (AMSL)
Location -13.535722° -71.938780°
Runways 1
Magnetic Variation 5.637° W

METAR

SPZO 280000Z 27005KT 230V310 9999 NSC 13/M01 Q1031 NOSIG RMK BIRD HAZARD RWY 28 PP000

Decode

TAF

TAF SPZO 272300Z 2800/2824 VRB02KT 9999 FEW050 TX22/2819Z TN01/2810Z TEM CHECK TEXT NEW ENDING ADDED KATLYTAA

Decode

Destination Runways

ID Width Length Bearing (true) Bearing (mag) Surface Threshold Offset Overrun Length
10 148 ft / 45 m 11,135 ft / 3,394 m 95.97° 101.61° Asphalt 0 ft / 0 m 215 ft / 66 m
28 148 ft / 45 m 11,135 ft / 3,394 m 275.96° 281.60° Asphalt 0 ft / 0 m 200 ft / 61 m

Popular Alternatives